KAWM Airport (West Memphis Muni) Information

FAA: AWM - ICAO: KAWM

KAWM Airport Location

State Arkansas
County Crittenden
City West Memphis
KAWM Airport is 3 miles west of West Memphis, AR.
Latitude 35-08-06.2000N
Longitude 090-14-04.0000W
Elevation 212ft

KAWM Airport METARs

METAR KAWM 032253Z AUTO 17009KT 10SM CLR 19/14 A2996 RMK AO2 SLP144 T01940144
Altimeter 29.96"
Temperature 19.4°C (66.9°F)
Wind 170° at 9KT
Clouds Skies are clear.
Visibility 10.0mi
Time observed: 2021-12-03T22:53:00Z

KAWM Airport Details

Status Operational
Activation February 1964
Ownership Public
Usage Public
Chart MEMPHIS
ATC on-site No
Beacon schedule sunset-sunrise
Beacon color clear green

KAWM Airport Contacts

Owner CITY OF WEST MEMPHIS
Owner address PO BOX 1728, WEST MEMPHIS, AR 72303
Owner phone 870-732-7500
Manager CRAIG KELLER
Manager address 12794 PUNKIN RD., WEINER, AR 72479
Manager phone (870) 834-8349

KAWM Airport (West Memphis Muni) Radio Frequencies

KAWM (Airport) Radio Frequencies

UNICOM 123.05
Common traffic advisory frequency (CTAF) 123.05